KSWF/SWF METAR and TAF weather

Enter ICAO airport designator
Station Type Date Time Source
KSWF METAR 2021/07/27 22:45 UTC NOAA

KSWF 272245Z 31016G26KT 10SM BKN050 25/16 A2994


Station Type Date Time Source
KSWF Decoded METAR 2021/07/27 22:45 UTC NOAA

Newburgh / Stewart, NY, United States (KSWF) 41-30N 074-06W
Jul 27, 2021 - 06:45 PM EDT / 2021.07.27 2245 UTC
Wind: from the NW (310 degrees) at 18 MPH (16 KT) gusting to 30 MPH (26 KT):0
Visibility: 10 mile(s):0
Sky conditions: mostly cloudy
Temperature: 77 F (25 C)
Dew Point: 60 F (16 C)
Relative Humidity: 57%
Pressure (altimeter): 29.94 in. Hg (1013 hPa)
ob: KSWF 272245Z 31016G26KT 10SM BKN050 25/16 A2994
cycle: 23

Station Type Date Time Source
KSWF TAF 2021/07/27 20:39 UTC NOAA

TAF
AMD KSWF 271936Z 2720/2824 25009KT P6SM SCT060
FM272300 28007KT P6SM BKN050
TEMPO 2723/2802 3SM TSRA SCT025 BKN050CB
FM280300 VRB03KT P6SM SCT025 BKN050
FM281200 36006KT P6SM SCT025 SCT050
FM281500 04008KT P6SM FEW025 SCT050
FM281900 34008KT P6SM SCT050
AMD NOT SKED

Example: see airport list